createdAt,value
2016-11-16T00:00:00.613Z,0
2016-11-16T00:00:32.947Z,0
2016-11-16T00:01:05.276Z,0
2016-11-16T00:01:37.604Z,0
2016-11-16T00:02:09.923Z,0
2016-11-16T00:02:42.246Z,0
2016-11-16T00:03:14.596Z,0
2016-11-16T00:03:46.916Z,0
2016-11-16T00:04:19.240Z,0
2016-11-16T00:04:51.559Z,0
2016-11-16T00:05:23.884Z,0
2016-11-16T00:05:56.209Z,0
2016-11-16T00:06:28.541Z,0
2016-11-16T00:07:00.852Z,0
2016-11-16T00:07:33.180Z,0
2016-11-16T00:08:05.500Z,0
2016-11-16T00:08:37.818Z,0
2016-11-16T00:09:10.113Z,0
2016-11-16T00:09:42.420Z,0
2016-11-16T00:10:14.732Z,0
2016-11-16T00:10:47.039Z,0
2016-11-16T00:11:19.369Z,0
2016-11-16T00:11:51.702Z,0
2016-11-16T00:12:24.058Z,0
2016-11-16T00:12:56.393Z,0
2016-11-16T00:13:28.717Z,0
2016-11-16T00:14:01.043Z,0
2016-11-16T00:14:33.362Z,0
2016-11-16T00:15:05.707Z,0
2016-11-16T00:15:38.033Z,0
2016-11-16T00:16:10.370Z,0
2016-11-16T00:16:42.709Z,0
2016-11-16T00:17:15.027Z,0
2016-11-16T00:17:47.341Z,0
2016-11-16T00:18:19.673Z,0
2016-11-16T00:18:51.996Z,0
2016-11-16T00:19:24.313Z,0
2016-11-16T00:19:56.646Z,0
2016-11-16T00:20:28.954Z,0
2016-11-16T00:21:01.262Z,0
2016-11-16T00:21:33.585Z,0
2016-11-16T00:22:05.912Z,0
2016-11-16T00:22:38.276Z,0
2016-11-16T00:23:10.635Z,0
2016-11-16T00:23:42.956Z,0
2016-11-16T00:24:15.285Z,0
2016-11-16T00:24:47.617Z,0
2016-11-16T00:25:19.951Z,0
2016-11-16T00:25:52.287Z,0
2016-11-16T00:26:24.679Z,0
2016-11-16T00:26:57.017Z,0
2016-11-16T00:27:29.347Z,0
2016-11-16T00:28:01.676Z,0
2016-11-16T00:28:34.003Z,0
2016-11-16T00:29:06.326Z,0
2016-11-16T00:29:38.655Z,0
2016-11-16T00:30:11.021Z,0
2016-11-16T00:30:43.351Z,0
2016-11-16T00:31:15.682Z,0
2016-11-16T00:31:48.007Z,0
2016-11-16T00:32:20.311Z,0
2016-11-16T00:32:52.621Z,0
2016-11-16T00:33:24.937Z,0
2016-11-16T00:33:57.245Z,0
2016-11-16T00:34:29.579Z,0
2016-11-16T00:35:01.920Z,0
2016-11-16T00:35:34.243Z,0
2016-11-16T00:36:06.568Z,0
2016-11-16T00:36:38.883Z,0
2016-11-16T00:37:11.196Z,0
2016-11-16T00:37:43.518Z,0
2016-11-16T00:38:15.835Z,0
2016-11-16T00:38:48.159Z,0
2016-11-16T00:39:20.503Z,0
2016-11-16T00:39:52.838Z,0
2016-11-16T00:40:25.163Z,0
2016-11-16T00:40:57.498Z,0
2016-11-16T00:41:29.836Z,0
2016-11-16T00:42:02.168Z,0
2016-11-16T00:42:34.482Z,0
2016-11-16T00:43:06.823Z,0
2016-11-16T00:43:39.180Z,0
2016-11-16T00:44:11.496Z,0
2016-11-16T00:44:43.830Z,0
2016-11-16T00:45:16.161Z,0
2016-11-16T00:45:48.500Z,0
2016-11-16T00:46:20.811Z,0
2016-11-16T00:46:54.018Z,0
2016-11-16T00:47:26.338Z,0
2016-11-16T00:47:58.669Z,0
2016-11-16T00:48:30.976Z,0
2016-11-16T00:49:03.311Z,0
2016-11-16T00:49:35.646Z,0
2016-11-16T00:50:07.972Z,0
2016-11-16T00:50:40.292Z,0
2016-11-16T00:51:12.629Z,0
2016-11-16T00:51:44.945Z,0
2016-11-16T00:52:17.261Z,0
2016-11-16T00:52:49.594Z,0
2016-11-16T00:53:21.916Z,0
2016-11-16T00:53:54.242Z,0
2016-11-16T00:54:26.560Z,0
2016-11-16T00:54:58.885Z,0
2016-11-16T00:55:31.254Z,0
2016-11-16T00:56:03.571Z,0
2016-11-16T00:56:35.905Z,0
2016-11-16T00:57:08.263Z,0
2016-11-16T00:57:40.613Z,0
2016-11-16T00:58:12.939Z,0
2016-11-16T00:58:45.256Z,0
2016-11-16T00:59:17.577Z,0
2016-11-16T00:59:49.910Z,0
2016-11-16T01:00:22.261Z,0
2016-11-16T01:00:54.592Z,0
2016-11-16T01:01:26.923Z,0
2016-11-16T01:01:59.255Z,0
2016-11-16T01:02:31.583Z,0
2016-11-16T01:03:03.896Z,0
2016-11-16T01:03:36.231Z,0
2016-11-16T01:04:08.545Z,0
2016-11-16T01:04:40.872Z,0
2016-11-16T01:05:13.182Z,0
2016-11-16T01:05:45.490Z,0
2016-11-16T01:06:17.800Z,0
2016-11-16T01:06:50.118Z,0
2016-11-16T01:07:22.436Z,0
2016-11-16T01:07:54.735Z,0
2016-11-16T01:08:27.059Z,0
2016-11-16T01:08:59.396Z,0
2016-11-16T01:09:31.709Z,0
2016-11-16T01:10:04.008Z,0
2016-11-16T01:10:36.316Z,0
2016-11-16T01:11:08.621Z,0
2016-11-16T01:11:40.912Z,0
2016-11-16T01:12:13.247Z,0
2016-11-16T01:12:45.551Z,0
2016-11-16T01:13:17.863Z,0
2016-11-16T01:13:50.165Z,0
2016-11-16T01:14:22.482Z,0
2016-11-16T01:14:54.804Z,0
2016-11-16T01:15:27.097Z,0
2016-11-16T01:15:59.411Z,0
2016-11-16T01:16:31.702Z,0
2016-11-16T01:17:04.026Z,0
2016-11-16T01:17:36.354Z,0
2016-11-16T01:18:08.674Z,0
2016-11-16T01:18:40.978Z,0
2016-11-16T01:19:13.320Z,0
2016-11-16T01:19:45.622Z,0
2016-11-16T01:20:17.946Z,0
2016-11-16T01:20:50.292Z,0
2016-11-16T01:21:22.612Z,0
2016-11-16T01:21:54.931Z,0
2016-11-16T01:22:27.255Z,0
2016-11-16T01:22:59.586Z,0
2016-11-16T01:23:31.909Z,0
2016-11-16T01:24:04.236Z,0
2016-11-16T01:24:36.560Z,0
2016-11-16T01:25:08.880Z,0
2016-11-16T01:25:41.195Z,0
2016-11-16T01:26:13.505Z,0
2016-11-16T01:26:45.807Z,0
2016-11-16T01:27:18.112Z,0
2016-11-16T01:27:50.421Z,0
2016-11-16T01:28:22.727Z,0
2016-11-16T01:28:55.034Z,0
2016-11-16T01:29:27.333Z,0
2016-11-16T01:29:59.634Z,0
2016-11-16T01:30:31.983Z,0
2016-11-16T01:31:04.305Z,0
2016-11-16T01:31:36.632Z,0
2016-11-16T01:32:08.958Z,0
2016-11-16T01:32:41.270Z,0
2016-11-16T01:33:13.551Z,0
2016-11-16T01:33:45.859Z,0
2016-11-16T01:34:18.173Z,0
2016-11-16T01:34:50.476Z,0
2016-11-16T01:35:22.776Z,0
2016-11-16T01:35:55.086Z,0
2016-11-16T01:36:27.420Z,0
2016-11-16T01:36:59.725Z,0
2016-11-16T01:37:32.028Z,0
2016-11-16T01:38:04.360Z,0
2016-11-16T01:38:36.670Z,0
2016-11-16T01:39:08.972Z,0
2016-11-16T01:39:41.292Z,0
2016-11-16T01:40:13.602Z,0
2016-11-16T01:40:45.904Z,0
2016-11-16T01:41:18.195Z,0
2016-11-16T01:41:50.513Z,0
2016-11-16T01:42:22.835Z,0
2016-11-16T01:42:55.137Z,0
2016-11-16T01:43:27.445Z,0
2016-11-16T01:43:59.758Z,0
2016-11-16T01:44:32.056Z,0
2016-11-16T01:45:04.368Z,0
2016-11-16T01:45:36.677Z,0
2016-11-16T01:46:08.991Z,0
2016-11-16T01:46:41.285Z,0
2016-11-16T01:47:13.595Z,0
2016-11-16T01:47:45.900Z,0
2016-11-16T01:48:18.201Z,0
2016-11-16T01:48:50.511Z,0
2016-11-16T01:49:22.816Z,0
2016-11-16T01:49:55.107Z,0
2016-11-16T01:50:27.415Z,0
2016-11-16T01:50:59.760Z,0
2016-11-16T01:51:32.083Z,0
2016-11-16T01:52:04.369Z,0
2016-11-16T01:52:36.671Z,0
2016-11-16T01:53:08.995Z,0
2016-11-16T01:53:41.295Z,0
2016-11-16T01:54:13.603Z,0
2016-11-16T01:54:45.913Z,0
2016-11-16T01:55:18.239Z,0
2016-11-16T01:55:50.566Z,0
2016-11-16T01:56:22.891Z,0
2016-11-16T01:56:55.196Z,0
2016-11-16T01:57:27.524Z,0
2016-11-16T01:57:59.877Z,0
2016-11-16T01:58:32.232Z,0
2016-11-16T01:59:04.540Z,0
2016-11-16T01:59:36.838Z,0
2016-11-16T02:00:09.174Z,0
2016-11-16T02:00:41.597Z,0
2016-11-16T02:01:13.912Z,0
2016-11-16T02:01:46.231Z,0
2016-11-16T02:02:18.543Z,0
2016-11-16T02:02:50.858Z,0
2016-11-16T02:03:23.189Z,0
2016-11-16T02:03:55.518Z,0
2016-11-16T02:04:27.829Z,0
2016-11-16T02:05:00.151Z,0
2016-11-16T02:05:32.438Z,0
2016-11-16T02:06:04.754Z,0
2016-11-16T02:06:37.065Z,0
2016-11-16T02:07:09.389Z,0
2016-11-16T02:07:41.709Z,0
2016-11-16T02:08:14.020Z,0
2016-11-16T02:08:46.331Z,0
2016-11-16T02:09:18.645Z,0
2016-11-16T02:09:50.961Z,0
2016-11-16T02:10:23.282Z,0
2016-11-16T02:10:55.600Z,0
2016-11-16T02:11:27.926Z,0
2016-11-16T02:12:00.250Z,0
2016-11-16T02:12:32.567Z,0
2016-11-16T02:13:04.879Z,0
2016-11-16T02:13:37.229Z,0
2016-11-16T02:14:09.553Z,0
2016-11-16T02:14:41.886Z,0
2016-11-16T02:15:14.220Z,0
2016-11-16T02:15:46.544Z,0
2016-11-16T02:16:18.887Z,0
2016-11-16T02:16:51.208Z,0
2016-11-16T02:17:23.523Z,0
2016-11-16T02:17:55.837Z,0
2016-11-16T02:18:28.161Z,0
2016-11-16T02:19:00.490Z,0
2016-11-16T02:19:32.828Z,0
2016-11-16T02:20:05.155Z,0
2016-11-16T02:20:37.459Z,0
2016-11-16T02:21:09.757Z,0
2016-11-16T02:21:42.079Z,0
2016-11-16T02:22:14.440Z,0
2016-11-16T02:22:46.759Z,0
2016-11-16T02:23:19.066Z,0
2016-11-16T02:23:51.389Z,0
2016-11-16T02:24:23.699Z,0
2016-11-16T02:24:56.018Z,0
2016-11-16T02:25:28.333Z,0
2016-11-16T02:26:00.642Z,0
2016-11-16T02:26:32.955Z,0
2016-11-16T02:27:05.272Z,0
2016-11-16T02:27:37.586Z,0
2016-11-16T02:28:09.908Z,0
2016-11-16T02:28:42.236Z,0
2016-11-16T02:29:14.554Z,0
2016-11-16T02:29:46.890Z,0
2016-11-16T02:30:19.212Z,0
2016-11-16T02:30:51.527Z,0
2016-11-16T02:31:23.849Z,0
2016-11-16T02:31:56.180Z,0
2016-11-16T02:32:28.500Z,0
2016-11-16T02:33:00.811Z,0
2016-11-16T02:33:33.134Z,0
2016-11-16T02:34:05.467Z,0
2016-11-16T02:34:37.778Z,0
2016-11-16T02:35:10.106Z,0
2016-11-16T02:35:42.434Z,0
2016-11-16T02:36:14.789Z,0
2016-11-16T02:36:47.128Z,0
2016-11-16T02:37:19.423Z,0
2016-11-16T02:37:51.730Z,0
2016-11-16T02:38:24.055Z,0
2016-11-16T02:38:56.381Z,0
2016-11-16T02:39:28.693Z,0
2016-11-16T02:40:01.004Z,0
2016-11-16T02:40:33.344Z,0
2016-11-16T02:41:05.672Z,0
2016-11-16T02:41:37.983Z,0
2016-11-16T02:42:10.297Z,0
2016-11-16T02:42:42.606Z,0
2016-11-16T02:43:14.941Z,0
2016-11-16T02:43:47.243Z,0
2016-11-16T02:44:19.558Z,0
2016-11-16T02:44:51.885Z,0
2016-11-16T02:45:24.187Z,0
2016-11-16T02:45:56.538Z,0
2016-11-16T02:46:28.838Z,0
2016-11-16T02:47:01.170Z,0
2016-11-16T02:47:33.505Z,0
2016-11-16T02:48:05.836Z,0
2016-11-16T02:48:38.159Z,0
2016-11-16T02:49:10.478Z,0
2016-11-16T02:49:42.819Z,0
2016-11-16T02:50:15.150Z,0
2016-11-16T02:50:47.518Z,0
2016-11-16T02:51:19.874Z,0
2016-11-16T02:51:52.232Z,0
2016-11-16T02:52:24.536Z,0
2016-11-16T02:52:56.857Z,0
2016-11-16T02:53:29.170Z,0
2016-11-16T02:54:01.480Z,0
2016-11-16T02:54:33.818Z,0
2016-11-16T02:55:06.143Z,0
2016-11-16T02:55:38.453Z,0
2016-11-16T02:56:10.806Z,0
2016-11-16T02:56:43.152Z,0
2016-11-16T02:57:15.473Z,0
2016-11-16T02:57:47.778Z,0
2016-11-16T02:58:20.101Z,0
2016-11-16T02:58:52.394Z,0
2016-11-16T02:59:24.714Z,0
2016-11-16T02:59:57.047Z,0
2016-11-16T03:00:29.370Z,0
2016-11-16T03:01:01.674Z,0
2016-11-16T03:01:34.012Z,0
2016-11-16T03:02:06.332Z,0
2016-11-16T03:02:38.642Z,0
2016-11-16T03:03:10.961Z,0
2016-11-16T03:03:43.304Z,0
2016-11-16T03:04:15.631Z,0
2016-11-16T03:04:47.946Z,0
2016-11-16T03:05:20.266Z,0
2016-11-16T03:05:52.579Z,0
2016-11-16T03:06:24.890Z,0
2016-11-16T03:06:57.205Z,0
2016-11-16T03:07:29.523Z,0
2016-11-16T03:08:01.868Z,0
2016-11-16T03:08:34.195Z,0
2016-11-16T03:09:06.500Z,0
2016-11-16T03:09:38.820Z,0
2016-11-16T03:10:11.153Z,0
2016-11-16T03:10:43.475Z,0
2016-11-16T03:11:15.781Z,0
2016-11-16T03:11:48.107Z,0
2016-11-16T03:12:20.447Z,0
2016-11-16T03:12:52.754Z,0
2016-11-16T03:13:25.077Z,0
2016-11-16T03:13:57.415Z,0
2016-11-16T03:14:29.741Z,0
2016-11-16T03:15:02.060Z,0
2016-11-16T03:15:34.379Z,0
2016-11-16T03:16:06.709Z,0
2016-11-16T03:16:39.030Z,0
2016-11-16T03:17:11.349Z,0
2016-11-16T03:17:43.674Z,0
2016-11-16T03:18:16.008Z,0
2016-11-16T03:18:48.329Z,0
2016-11-16T03:19:20.658Z,0
2016-11-16T03:19:52.985Z,0
2016-11-16T03:20:25.299Z,0
2016-11-16T03:20:57.610Z,0
2016-11-16T03:21:29.946Z,0
2016-11-16T03:22:02.266Z,0
2016-11-16T03:22:34.588Z,0
2016-11-16T03:23:06.909Z,0
2016-11-16T03:23:39.232Z,0
2016-11-16T03:24:11.571Z,0
2016-11-16T03:24:43.918Z,0
2016-11-16T03:25:16.229Z,0
2016-11-16T03:25:48.546Z,0
2016-11-16T03:26:20.880Z,0
2016-11-16T03:26:53.242Z,0
2016-11-16T03:27:25.563Z,0
2016-11-16T03:27:57.891Z,0
2016-11-16T03:28:30.208Z,0
2016-11-16T03:29:02.540Z,0
2016-11-16T03:29:34.876Z,0
2016-11-16T03:30:07.222Z,0
2016-11-16T03:30:39.547Z,0
2016-11-16T03:31:11.859Z,0
2016-11-16T03:31:44.173Z,0
2016-11-16T03:32:16.511Z,0
2016-11-16T03:32:48.807Z,0
2016-11-16T03:33:21.125Z,0
2016-11-16T03:33:53.437Z,0
2016-11-16T03:34:25.760Z,0
2016-11-16T03:34:58.081Z,0
2016-11-16T03:35:30.414Z,0
2016-11-16T03:36:02.731Z,0
2016-11-16T03:36:35.063Z,0
2016-11-16T03:37:07.372Z,0
2016-11-16T03:37:39.710Z,0
2016-11-16T03:38:12.040Z,0
2016-11-16T03:38:44.345Z,0
2016-11-16T03:39:16.682Z,0
2016-11-16T03:39:49.020Z,0
2016-11-16T03:40:21.338Z,0
2016-11-16T03:40:53.642Z,0
2016-11-16T03:41:25.944Z,0
2016-11-16T03:41:58.264Z,0
2016-11-16T03:42:30.584Z,0
2016-11-16T03:43:02.944Z,0
2016-11-16T03:43:35.277Z,0
2016-11-16T03:44:07.578Z,0
2016-11-16T03:44:39.902Z,0
2016-11-16T03:45:12.223Z,0
2016-11-16T03:45:44.541Z,0
2016-11-16T03:46:16.848Z,0
2016-11-16T03:46:49.172Z,0
2016-11-16T03:47:21.476Z,0
2016-11-16T03:47:53.776Z,0
2016-11-16T03:48:26.102Z,0
2016-11-16T03:48:58.427Z,0
2016-11-16T03:49:30.735Z,0
2016-11-16T03:50:03.057Z,0
2016-11-16T03:50:35.392Z,0
2016-11-16T03:51:07.698Z,0
2016-11-16T03:51:40.000Z,0
2016-11-16T03:52:12.323Z,0
2016-11-16T03:52:44.644Z,0
2016-11-16T03:53:16.956Z,0
2016-11-16T03:53:49.277Z,0
2016-11-16T03:54:21.629Z,0
2016-11-16T03:54:53.951Z,0
2016-11-16T03:55:27.152Z,0
2016-11-16T03:55:59.483Z,0
2016-11-16T03:56:31.820Z,0
2016-11-16T03:57:04.140Z,0
2016-11-16T03:57:36.445Z,0
2016-11-16T03:58:08.757Z,0
2016-11-16T03:58:41.107Z,0
2016-11-16T03:59:13.435Z,0
2016-11-16T03:59:45.753Z,0
2016-11-16T04:00:18.084Z,0
2016-11-16T04:00:50.402Z,0
2016-11-16T04:01:22.740Z,0
2016-11-16T04:01:55.077Z,0
2016-11-16T04:02:27.410Z,0
2016-11-16T04:02:59.721Z,0
2016-11-16T04:03:32.028Z,0
2016-11-16T04:04:04.346Z,0
2016-11-16T04:04:36.641Z,0
2016-11-16T04:05:08.964Z,0
2016-11-16T04:05:41.282Z,0
2016-11-16T04:06:13.587Z,0
2016-11-16T04:06:45.909Z,0
2016-11-16T04:07:18.228Z,0
2016-11-16T04:07:50.546Z,0
2016-11-16T04:08:22.855Z,0
2016-11-16T04:08:55.171Z,0
2016-11-16T04:09:27.529Z,0
2016-11-16T04:09:59.840Z,0
2016-11-16T04:10:32.167Z,0
2016-11-16T04:11:04.496Z,0
2016-11-16T04:11:36.853Z,0
2016-11-16T04:12:09.173Z,0
2016-11-16T04:12:41.495Z,0
2016-11-16T04:13:13.815Z,0
2016-11-16T04:13:46.138Z,0
2016-11-16T04:14:18.451Z,0
2016-11-16T04:14:50.794Z,0
2016-11-16T04:15:23.121Z,0
2016-11-16T04:15:55.491Z,0
2016-11-16T04:16:27.814Z,0
2016-11-16T04:17:00.143Z,0
2016-11-16T04:17:32.458Z,0
2016-11-16T04:18:04.818Z,0
2016-11-16T04:18:37.135Z,0
2016-11-16T04:19:09.459Z,0
2016-11-16T04:19:41.788Z,0
2016-11-16T04:20:14.125Z,0
2016-11-16T04:20:46.448Z,0
2016-11-16T04:21:18.772Z,0
2016-11-16T04:21:51.103Z,0
2016-11-16T04:22:23.440Z,0
2016-11-16T04:22:55.754Z,0
2016-11-16T04:23:28.084Z,0
2016-11-16T04:24:00.403Z,0
2016-11-16T04:24:32.730Z,0
2016-11-16T04:25:05.053Z,0
2016-11-16T04:25:37.385Z,0
2016-11-16T04:26:09.717Z,0
2016-11-16T04:26:42.040Z,0
2016-11-16T04:27:14.345Z,0
2016-11-16T04:27:46.669Z,0
2016-11-16T04:28:18.989Z,0
2016-11-16T04:28:51.312Z,0
2016-11-16T04:29:23.643Z,0
2016-11-16T04:29:55.943Z,0
2016-11-16T04:30:28.239Z,0
2016-11-16T04:31:00.553Z,0
2016-11-16T04:31:32.847Z,0
2016-11-16T04:32:05.163Z,0
2016-11-16T04:32:37.490Z,0
2016-11-16T04:33:09.831Z,0
2016-11-16T04:33:42.147Z,0
2016-11-16T04:34:14.452Z,0
2016-11-16T04:34:46.762Z,0
2016-11-16T04:35:19.093Z,0
2016-11-16T04:35:51.406Z,0
2016-11-16T04:36:23.719Z,0
2016-11-16T04:36:56.035Z,0
2016-11-16T04:37:28.389Z,0
2016-11-16T04:38:00.700Z,0
2016-11-16T04:38:33.008Z,0
2016-11-16T04:39:05.314Z,0
2016-11-16T04:39:37.621Z,0
2016-11-16T04:40:09.938Z,0
2016-11-16T04:40:42.270Z,0
2016-11-16T04:41:14.587Z,0
2016-11-16T04:41:46.897Z,0
2016-11-16T04:42:19.220Z,0
2016-11-16T04:42:51.526Z,0
2016-11-16T04:43:23.832Z,0
2016-11-16T04:43:56.160Z,0
2016-11-16T04:44:28.490Z,0
2016-11-16T04:45:00.800Z,0
2016-11-16T04:45:33.109Z,0
2016-11-16T04:46:05.440Z,0
2016-11-16T04:46:37.757Z,0
2016-11-16T04:47:10.087Z,0
2016-11-16T04:47:42.402Z,0
2016-11-16T04:48:14.717Z,0
2016-11-16T04:48:47.039Z,0
2016-11-16T04:49:19.368Z,0
2016-11-16T04:49:51.686Z,0
2016-11-16T04:50:23.997Z,0
2016-11-16T04:50:56.317Z,0
2016-11-16T04:51:28.684Z,0
2016-11-16T04:52:01.008Z,0
2016-11-16T04:52:33.332Z,0
2016-11-16T04:53:05.638Z,0
2016-11-16T04:53:38.004Z,0
2016-11-16T04:54:10.317Z,0
2016-11-16T04:54:42.641Z,0
2016-11-16T04:55:14.954Z,0
2016-11-16T04:55:47.286Z,0
2016-11-16T04:56:19.617Z,0
2016-11-16T04:56:51.944Z,0
2016-11-16T04:57:24.265Z,0
2016-11-16T04:57:56.576Z,0
2016-11-16T04:58:28.892Z,0
2016-11-16T04:59:01.208Z,0
2016-11-16T04:59:33.521Z,0
2016-11-16T05:00:05.879Z,0
2016-11-16T05:00:38.183Z,0
2016-11-16T05:01:10.515Z,0
2016-11-16T05:01:42.854Z,0
2016-11-16T05:02:15.146Z,0
2016-11-16T05:02:47.473Z,0
2016-11-16T05:03:19.794Z,0
2016-11-16T05:03:52.119Z,0
2016-11-16T05:04:24.467Z,0
2016-11-16T05:04:56.780Z,0
2016-11-16T05:05:29.097Z,0
2016-11-16T05:06:01.408Z,0
2016-11-16T05:06:33.770Z,0
2016-11-16T05:07:06.104Z,0
2016-11-16T05:07:38.409Z,0
2016-11-16T05:08:10.833Z,0
2016-11-16T05:08:43.147Z,0
2016-11-16T05:09:15.470Z,0
2016-11-16T05:09:47.788Z,0
2016-11-16T05:10:20.115Z,0
2016-11-16T05:10:52.437Z,0
2016-11-16T05:11:24.775Z,0
2016-11-16T05:11:57.109Z,0
2016-11-16T05:12:29.431Z,0
2016-11-16T05:13:01.731Z,0
2016-11-16T05:13:34.033Z,0
2016-11-16T05:14:06.349Z,0
2016-11-16T05:14:38.687Z,0
2016-11-16T05:15:11.019Z,0
2016-11-16T05:15:43.330Z,0
2016-11-16T05:16:15.647Z,0
2016-11-16T05:16:47.961Z,0
2016-11-16T05:17:20.294Z,0
2016-11-16T05:17:52.616Z,0
2016-11-16T05:18:24.939Z,0
2016-11-16T05:18:57.262Z,0
2016-11-16T05:19:29.591Z,0
2016-11-16T05:20:01.910Z,0
2016-11-16T05:20:34.198Z,0
2016-11-16T05:21:06.527Z,0
2016-11-16T05:21:38.846Z,0
2016-11-16T05:22:11.162Z,0
2016-11-16T05:22:43.497Z,0
2016-11-16T05:23:15.810Z,0
2016-11-16T05:23:48.114Z,0
2016-11-16T05:24:20.472Z,0
2016-11-16T05:24:52.803Z,0
2016-11-16T05:25:25.146Z,0
2016-11-16T05:25:57.453Z,0
2016-11-16T05:26:29.779Z,0
2016-11-16T05:27:02.115Z,0
2016-11-16T05:27:34.446Z,0
2016-11-16T05:28:06.755Z,0
2016-11-16T05:28:39.062Z,0
2016-11-16T05:29:11.379Z,0
2016-11-16T05:29:43.695Z,0
2016-11-16T05:30:16.019Z,0
2016-11-16T05:30:48.368Z,0
2016-11-16T05:31:20.699Z,0
2016-11-16T05:31:53.034Z,0
2016-11-16T05:32:25.366Z,0
2016-11-16T05:32:57.695Z,0
2016-11-16T05:33:30.013Z,0
2016-11-16T05:34:02.348Z,0
2016-11-16T05:34:34.666Z,0
2016-11-16T05:35:07.001Z,0
2016-11-16T05:35:39.327Z,0
2016-11-16T05:36:11.642Z,0
2016-11-16T05:36:43.953Z,0
2016-11-16T05:37:16.277Z,0
2016-11-16T05:37:48.584Z,0
2016-11-16T05:38:20.915Z,0
2016-11-16T05:38:53.242Z,0
2016-11-16T05:39:25.566Z,0
2016-11-16T05:39:57.888Z,0
2016-11-16T05:40:30.239Z,0
2016-11-16T05:41:02.575Z,0
2016-11-16T05:41:34.895Z,0
2016-11-16T05:42:07.234Z,0
2016-11-16T05:42:39.570Z,0
2016-11-16T05:43:11.900Z,0
2016-11-16T05:43:44.214Z,0
2016-11-16T05:44:16.539Z,0
2016-11-16T05:44:48.860Z,0
2016-11-16T05:45:21.178Z,0
2016-11-16T05:45:53.512Z,0
2016-11-16T05:46:25.838Z,0
2016-11-16T05:46:58.144Z,0
2016-11-16T05:47:30.477Z,0
2016-11-16T05:48:02.800Z,0
2016-11-16T05:48:35.097Z,0
2016-11-16T05:49:07.434Z,0
2016-11-16T05:49:39.767Z,0
2016-11-16T05:50:12.128Z,0
2016-11-16T05:50:44.438Z,0
2016-11-16T05:51:16.761Z,0
2016-11-16T05:51:49.066Z,0
2016-11-16T05:52:21.399Z,0
2016-11-16T05:52:53.713Z,0
2016-11-16T05:53:26.046Z,0
2016-11-16T05:53:58.364Z,0
2016-11-16T05:54:30.696Z,0
2016-11-16T05:55:03.018Z,0
2016-11-16T05:55:35.342Z,0
2016-11-16T05:56:07.665Z,0
2016-11-16T05:56:39.976Z,0
2016-11-16T05:57:12.321Z,0
2016-11-16T05:57:44.638Z,0
2016-11-16T05:58:16.957Z,0
2016-11-16T05:58:49.274Z,0
2016-11-16T05:59:21.595Z,0
2016-11-16T05:59:53.922Z,0
2016-11-16T06:00:26.263Z,0
2016-11-16T06:00:58.587Z,0
2016-11-16T06:01:30.908Z,0
2016-11-16T06:02:03.278Z,0
2016-11-16T06:02:35.634Z,0
2016-11-16T06:03:07.948Z,0
2016-11-16T06:03:40.289Z,0
2016-11-16T06:04:12.635Z,0
2016-11-16T06:04:44.970Z,0
2016-11-16T06:05:17.284Z,0
2016-11-16T06:05:49.612Z,0
2016-11-16T06:06:21.924Z,0
2016-11-16T06:06:54.241Z,0
2016-11-16T06:07:26.562Z,0
2016-11-16T06:07:58.878Z,0
2016-11-16T06:08:31.200Z,0
2016-11-16T06:09:03.526Z,0
2016-11-16T06:09:35.864Z,0
2016-11-16T06:10:08.202Z,0
2016-11-16T06:10:40.539Z,0
2016-11-16T06:11:12.865Z,0
2016-11-16T06:11:46.061Z,0
2016-11-16T06:12:18.570Z,0
2016-11-16T06:12:50.893Z,0
2016-11-16T06:13:23.263Z,0
2016-11-16T06:13:55.562Z,0
2016-11-16T06:14:27.869Z,0
2016-11-16T06:15:00.171Z,0
2016-11-16T06:15:32.506Z,0
2016-11-16T06:16:04.842Z,0
2016-11-16T06:16:37.195Z,0
2016-11-16T06:17:09.513Z,0
2016-11-16T06:17:41.814Z,0
2016-11-16T06:18:14.127Z,0
2016-11-16T06:18:46.453Z,0
2016-11-16T06:19:18.769Z,0
2016-11-16T06:19:51.223Z,0
2016-11-16T06:20:42.962Z,0
2016-11-16T06:21:15.292Z,0
2016-11-16T06:21:47.673Z,0
2016-11-16T06:22:20.000Z,0
2016-11-16T06:22:52.325Z,0
2016-11-16T06:23:24.643Z,0
2016-11-16T06:23:56.960Z,0
2016-11-16T06:24:29.275Z,0
2016-11-16T06:25:01.597Z,0
2016-11-16T06:25:33.918Z,0
2016-11-16T06:26:06.239Z,0
2016-11-16T06:26:38.562Z,0
2016-11-16T06:27:10.885Z,0
2016-11-16T06:27:43.219Z,0
2016-11-16T06:28:15.555Z,0
2016-11-16T06:28:47.876Z,0
2016-11-16T06:29:20.198Z,4
2016-11-16T06:29:52.517Z,4
2016-11-16T06:30:24.888Z,4
2016-11-16T06:30:57.289Z,4
2016-11-16T06:31:29.627Z,0
2016-11-16T06:32:01.953Z,4
2016-11-16T06:32:36.103Z,4
2016-11-16T06:33:11.636Z,4
2016-11-16T06:33:49.792Z,4
2016-11-16T06:34:23.364Z,4
2016-11-16T06:35:03.513Z,4
2016-11-16T06:35:41.994Z,8
2016-11-16T06:36:16.529Z,8
2016-11-16T06:36:50.006Z,8
2016-11-16T06:37:22.560Z,8
2016-11-16T06:37:56.989Z,8
2016-11-16T06:38:29.875Z,12
2016-11-16T06:39:02.450Z,8
2016-11-16T06:39:35.024Z,8
2016-11-16T06:40:07.611Z,12
2016-11-16T06:40:40.155Z,12
2016-11-16T06:41:12.702Z,12
2016-11-16T06:41:45.264Z,12
2016-11-16T06:42:17.839Z,12
2016-11-16T06:42:50.315Z,12
2016-11-16T06:43:22.629Z,12
2016-11-16T06:43:54.977Z,12
2016-11-16T06:44:27.264Z,12
2016-11-16T06:44:59.580Z,12
2016-11-16T06:45:31.904Z,16
2016-11-16T06:46:04.876Z,16
2016-11-16T06:46:37.231Z,16
2016-11-16T06:47:10.428Z,20
2016-11-16T06:47:42.740Z,16
2016-11-16T06:48:16.503Z,20
2016-11-16T06:48:48.816Z,20
2016-11-16T06:49:21.143Z,16
2016-11-16T06:49:53.509Z,20
2016-11-16T06:50:26.358Z,20
2016-11-16T06:50:58.721Z,20
2016-11-16T06:51:31.075Z,20
2016-11-16T06:52:03.400Z,20
2016-11-16T06:52:35.747Z,20
2016-11-16T06:53:08.425Z,24
2016-11-16T06:53:40.783Z,20
2016-11-16T06:54:20.636Z,24
2016-11-16T06:54:59.227Z,28
2016-11-16T06:55:40.718Z,28
2016-11-16T06:56:20.809Z,24
2016-11-16T06:57:03.400Z,28
2016-11-16T06:57:41.872Z,36
2016-11-16T06:58:20.366Z,36
2016-11-16T06:58:53.754Z,44
2016-11-16T06:59:26.754Z,48
2016-11-16T06:59:59.085Z,56
2016-11-16T07:00:31.408Z,60
2016-11-16T07:01:03.715Z,64
2016-11-16T07:01:36.036Z,68
2016-11-16T07:02:08.355Z,76
2016-11-16T07:02:40.679Z,76
2016-11-16T07:03:12.994Z,80
2016-11-16T07:03:45.324Z,84
2016-11-16T07:04:17.640Z,88
2016-11-16T07:04:49.959Z,88
2016-11-16T07:05:22.267Z,96
2016-11-16T07:05:54.569Z,100
2016-11-16T07:06:26.893Z,108
2016-11-16T07:06:59.222Z,116
2016-11-16T07:07:31.552Z,124
2016-11-16T07:08:03.876Z,128
2016-11-16T07:08:36.200Z,140
2016-11-16T07:09:08.581Z,144
2016-11-16T07:09:45.821Z,148
2016-11-16T07:10:19.395Z,144
2016-11-16T07:10:51.767Z,144
2016-11-16T07:11:24.193Z,152
2016-11-16T07:11:56.498Z,172
2016-11-16T07:12:28.837Z,168
2016-11-16T07:13:01.149Z,172
2016-11-16T07:13:33.850Z,176
2016-11-16T07:14:06.186Z,188
2016-11-16T07:14:38.522Z,192
2016-11-16T07:15:12.766Z,188
2016-11-16T07:15:47.309Z,172
2016-11-16T07:16:19.932Z,160
2016-11-16T07:16:52.285Z,160
2016-11-16T07:17:24.610Z,164
2016-11-16T07:17:57.725Z,156
2016-11-16T07:18:30.102Z,156
2016-11-16T07:19:03.293Z,164
2016-11-16T07:19:35.646Z,176
2016-11-16T07:20:08.659Z,184
2016-11-16T07:20:41.700Z,200
2016-11-16T07:21:14.025Z,208
2016-11-16T07:21:47.307Z,224
2016-11-16T07:22:20.368Z,224
2016-11-16T07:22:52.706Z,204
2016-11-16T07:23:25.022Z,208
2016-11-16T07:23:57.725Z,216
2016-11-16T07:24:30.021Z,244
2016-11-16T07:25:02.331Z,268
2016-11-16T07:25:34.635Z,268
2016-11-16T07:26:06.961Z,276
2016-11-16T07:26:39.290Z,268
2016-11-16T07:27:11.626Z,264
2016-11-16T07:27:43.955Z,256
2016-11-16T07:28:17.226Z,272
2016-11-16T07:28:49.605Z,292
2016-11-16T07:29:22.716Z,296
2016-11-16T07:29:55.349Z,284
2016-11-16T07:30:27.714Z,288
2016-11-16T07:31:00.019Z,276
2016-11-16T07:31:32.363Z,272
2016-11-16T07:32:04.695Z,260
2016-11-16T07:32:37.021Z,232
2016-11-16T07:33:09.342Z,212
2016-11-16T07:33:41.668Z,172
2016-11-16T07:34:13.969Z,152
2016-11-16T07:34:46.322Z,148
2016-11-16T07:35:18.668Z,156
2016-11-16T07:35:51.015Z,152
2016-11-16T07:36:23.331Z,148
2016-11-16T07:36:55.692Z,144
2016-11-16T07:37:28.071Z,144
2016-11-16T07:38:00.395Z,128
2016-11-16T07:38:32.945Z,116
2016-11-16T07:39:05.264Z,124
2016-11-16T07:39:37.577Z,116
2016-11-16T07:40:09.943Z,108
2016-11-16T07:40:42.250Z,96
2016-11-16T07:41:14.589Z,84
2016-11-16T07:41:46.911Z,80
2016-11-16T07:42:19.233Z,92
2016-11-16T07:42:51.547Z,96
2016-11-16T07:43:23.864Z,108
2016-11-16T07:43:56.178Z,128
2016-11-16T07:44:28.503Z,144
2016-11-16T07:45:00.817Z,152
2016-11-16T07:45:33.150Z,156
2016-11-16T07:46:06.746Z,156
2016-11-16T07:46:39.851Z,180
2016-11-16T07:47:14.931Z,192
2016-11-16T07:47:48.342Z,200
2016-11-16T07:48:24.180Z,228
2016-11-16T07:48:58.408Z,232
2016-11-16T07:49:30.707Z,232
2016-11-16T07:50:03.029Z,228
2016-11-16T07:50:35.995Z,236
2016-11-16T07:51:10.923Z,248
2016-11-16T07:51:43.685Z,248
2016-11-16T07:52:18.303Z,256
2016-11-16T07:52:51.847Z,264
2016-11-16T07:53:24.370Z,304
2016-11-16T07:53:56.982Z,324
2016-11-16T07:54:29.407Z,348
2016-11-16T07:55:02.440Z,364
2016-11-16T07:55:35.833Z,372